createdAt,value
2019-06-26T00:01:20.918Z,25.60
2019-06-26T00:03:51.672Z,25.60
2019-06-26T00:06:22.131Z,25.50
2019-06-26T00:08:53.108Z,25.50
2019-06-26T00:11:24.018Z,25.50
2019-06-26T00:13:54.617Z,25.50
2019-06-26T00:16:25.023Z,25.50
2019-06-26T00:18:55.318Z,25.40
2019-06-26T00:21:26.031Z,25.40
2019-06-26T00:23:56.962Z,25.40
2019-06-26T00:26:28.729Z,25.40
2019-06-26T00:28:59.290Z,25.30
2019-06-26T00:31:30.618Z,25.20
2019-06-26T00:34:01.560Z,25.20
2019-06-26T00:36:32.503Z,25.10
2019-06-26T00:39:04.267Z,25.10
2019-06-26T00:41:35.417Z,25.10
2019-06-26T00:44:06.561Z,25.10
2019-06-26T00:46:37.677Z,25.10
2019-06-26T00:49:08.655Z,25.00
2019-06-26T00:51:39.395Z,25.00
2019-06-26T00:54:11.779Z,25.00
2019-06-26T00:56:42.026Z,25.00
2019-06-26T00:59:12.993Z,25.00
2019-06-26T01:01:44.413Z,25.00
2019-06-26T01:04:19.577Z,24.90
2019-06-26T01:06:50.427Z,24.80
2019-06-26T01:09:21.553Z,24.80
2019-06-26T01:11:52.263Z,24.70
2019-06-26T01:14:22.838Z,24.70
2019-06-26T01:16:53.684Z,24.60
2019-06-26T01:19:25.106Z,24.60
2019-06-26T01:21:55.840Z,24.60
2019-06-26T01:24:26.579Z,24.60
2019-06-26T01:26:57.113Z,24.60
2019-06-26T01:29:27.560Z,24.60
2019-06-26T01:31:58.597Z,24.60
2019-06-26T01:34:29.484Z,24.60
2019-06-26T01:37:00.015Z,24.60
2019-06-26T01:39:30.210Z,24.50
2019-06-26T01:42:01.103Z,24.40
2019-06-26T01:44:31.427Z,24.40
2019-06-26T01:47:02.248Z,24.30
2019-06-26T01:49:33.361Z,24.30
2019-06-26T01:52:05.113Z,24.20
2019-06-26T01:54:37.509Z,24.20
2019-06-26T01:57:08.417Z,24.20
2019-06-26T01:59:39.167Z,24.20
2019-06-26T02:02:10.118Z,24.20
2019-06-26T02:04:41.026Z,24.30
2019-06-26T02:07:12.017Z,24.30
2019-06-26T02:09:42.585Z,24.30
2019-06-26T02:12:13.287Z,24.30
2019-06-26T02:14:43.607Z,24.30
2019-06-26T02:17:14.551Z,24.30
2019-06-26T02:19:44.413Z,24.20
2019-06-26T02:22:14.945Z,24.20
2019-06-26T02:24:46.702Z,24.20
2019-06-26T02:27:17.377Z,24.20
2019-06-26T02:29:48.113Z,24.20
2019-06-26T02:32:18.586Z,24.20
2019-06-26T02:34:49.929Z,24.20
2019-06-26T02:37:20.455Z,24.10
2019-06-26T02:39:51.843Z,24.00
2019-06-26T02:42:22.764Z,23.90
2019-06-26T02:44:54.939Z,23.80
2019-06-26T02:47:25.239Z,23.80
2019-06-26T02:49:56.764Z,23.70
2019-06-26T02:52:27.370Z,23.70
2019-06-26T02:54:58.665Z,23.60
2019-06-26T02:57:29.457Z,23.60
2019-06-26T03:00:01.843Z,23.60
2019-06-26T03:02:32.701Z,23.70
2019-06-26T03:05:03.991Z,23.70
2019-06-26T03:07:34.865Z,23.70
2019-06-26T03:10:07.388Z,23.70
2019-06-26T03:12:38.601Z,23.70
2019-06-26T03:15:10.562Z,23.70
2019-06-26T03:17:54.735Z,23.80
2019-06-26T03:20:14.737Z,23.80
2019-06-26T03:22:45.855Z,23.70
2019-06-26T03:25:16.797Z,23.70
2019-06-26T03:27:47.939Z,23.70
2019-06-26T03:30:19.456Z,23.70
2019-06-26T03:32:50.656Z,23.70
2019-06-26T03:35:21.195Z,23.70
2019-06-26T03:37:51.645Z,23.60
2019-06-26T03:40:22.671Z,23.50
2019-06-26T03:42:53.608Z,23.50
2019-06-26T03:45:26.030Z,23.40
2019-06-26T03:47:56.667Z,23.50
2019-06-26T03:50:28.076Z,23.40
2019-06-26T03:52:58.962Z,23.40
2019-06-26T03:55:29.701Z,23.40
2019-06-26T03:57:59.827Z,23.30
2019-06-26T04:00:37.485Z,23.30
2019-06-26T04:03:08.332Z,23.30
2019-06-26T04:05:39.654Z,23.40
2019-06-26T04:08:10.078Z,23.40
2019-06-26T04:10:43.241Z,23.40
2019-06-26T04:13:12.710Z,23.40
2019-06-26T04:15:43.181Z,23.40
2019-06-26T04:18:13.585Z,23.40
2019-06-26T04:20:44.061Z,23.40
2019-06-26T04:23:15.256Z,23.50
2019-06-26T04:25:45.981Z,23.50
2019-06-26T04:28:17.150Z,23.60
2019-06-26T04:30:48.499Z,23.70
2019-06-26T04:33:18.961Z,23.70
2019-06-26T04:35:50.385Z,23.80
2019-06-26T04:38:21.534Z,23.80
2019-06-26T04:40:52.477Z,23.90
2019-06-26T04:43:22.734Z,24.00
2019-06-26T04:45:58.184Z,24.00
2019-06-26T04:48:25.859Z,24.10
2019-06-26T04:50:56.843Z,24.10
2019-06-26T04:53:27.804Z,24.20
2019-06-26T04:55:58.987Z,24.30
2019-06-26T04:58:29.486Z,24.30
2019-06-26T05:00:59.320Z,24.40
2019-06-26T05:03:29.741Z,24.40
2019-06-26T05:05:59.893Z,24.50
2019-06-26T05:08:30.003Z,24.50
2019-06-26T05:11:00.549Z,24.50
2019-06-26T05:13:31.478Z,24.60
2019-06-26T05:16:14.319Z,24.60
2019-06-26T05:18:34.326Z,24.60
2019-06-26T05:21:05.328Z,24.80
2019-06-26T05:23:36.063Z,24.90
2019-06-26T05:26:08.317Z,24.90
2019-06-26T05:28:38.913Z,25.00
2019-06-26T05:31:09.512Z,25.00
2019-06-26T05:33:40.504Z,25.10
2019-06-26T05:36:11.397Z,25.20
2019-06-26T05:38:42.137Z,25.20
2019-06-26T05:41:13.500Z,25.30
2019-06-26T05:43:44.033Z,25.40
2019-06-26T05:46:26.909Z,25.40
2019-06-26T05:48:46.727Z,25.60
2019-06-26T05:51:17.233Z,25.70
2019-06-26T05:53:48.006Z,25.70
2019-06-26T05:56:18.707Z,25.80
2019-06-26T05:58:49.482Z,25.80
2019-06-26T06:01:20.025Z,25.90
2019-06-26T06:03:50.281Z,26.00
2019-06-26T06:06:21.219Z,26.10
2019-06-26T06:08:52.241Z,26.10
2019-06-26T06:11:23.379Z,26.20
2019-06-26T06:13:54.541Z,26.20
2019-06-26T06:16:25.411Z,26.40
2019-06-26T06:18:56.009Z,26.50
2019-06-26T06:21:26.953Z,26.60
2019-06-26T06:23:57.981Z,26.60
2019-06-26T06:26:28.236Z,26.70
2019-06-26T06:28:59.381Z,26.80
2019-06-26T06:31:30.290Z,27.00
2019-06-26T06:34:01.673Z,27.10
2019-06-26T06:36:31.834Z,27.20
2019-06-26T06:39:03.380Z,27.20
2019-06-26T06:41:35.069Z,27.30
2019-06-26T06:44:06.075Z,27.40
2019-06-26T06:46:39.066Z,27.40
2019-06-26T06:49:10.973Z,27.50
2019-06-26T06:51:42.173Z,27.60
2019-06-26T06:54:13.051Z,27.70
2019-06-26T06:56:43.614Z,27.90
2019-06-26T06:59:14.457Z,28.00
2019-06-26T07:01:44.891Z,28.10
2019-06-26T07:04:14.983Z,28.30
2019-06-26T07:06:46.424Z,28.40
2019-06-26T07:09:16.935Z,28.50
2019-06-26T07:11:48.091Z,28.60
2019-06-26T07:14:19.240Z,28.70
2019-06-26T07:16:50.097Z,28.80
2019-06-26T07:19:24.783Z,28.90
2019-06-26T07:21:55.954Z,29.10
2019-06-26T07:24:26.838Z,29.10
2019-06-26T07:26:57.636Z,29.20
2019-06-26T07:29:28.579Z,29.40
2019-06-26T07:31:59.735Z,29.50
2019-06-26T07:34:30.877Z,29.70
2019-06-26T07:37:00.870Z,29.80
2019-06-26T07:39:31.339Z,30.00
2019-06-26T07:42:02.270Z,30.00
2019-06-26T07:44:33.017Z,30.10
2019-06-26T07:47:03.753Z,30.20
2019-06-26T07:49:34.518Z,30.30
2019-06-26T07:52:05.209Z,30.50
2019-06-26T07:54:36.603Z,30.60
2019-06-26T07:57:07.116Z,30.50
2019-06-26T07:59:38.559Z,30.60
2019-06-26T08:02:09.626Z,30.60
2019-06-26T08:04:40.730Z,30.70
2019-06-26T08:07:10.934Z,30.90
2019-06-26T08:09:41.043Z,31.10
2019-06-26T08:12:12.161Z,31.20
2019-06-26T08:14:43.060Z,31.30
2019-06-26T08:17:14.082Z,31.40
2019-06-26T08:19:45.010Z,31.50
2019-06-26T08:22:15.895Z,31.50
2019-06-26T08:24:46.434Z,31.50
2019-06-26T08:27:17.110Z,31.60
2019-06-26T08:29:48.123Z,31.60
2019-06-26T08:32:18.662Z,31.70
2019-06-26T08:34:50.063Z,31.90
2019-06-26T08:37:20.607Z,32.10
2019-06-26T08:39:51.743Z,32.30
2019-06-26T08:42:22.830Z,32.50
2019-06-26T08:44:52.933Z,32.60
2019-06-26T08:47:23.962Z,32.70
2019-06-26T08:49:54.424Z,32.90
2019-06-26T08:52:25.247Z,33.10
2019-06-26T08:54:56.180Z,33.20
2019-06-26T08:57:26.853Z,33.40
2019-06-26T08:59:58.042Z,33.60
2019-06-26T09:02:29.004Z,33.60
2019-06-26T09:04:59.760Z,33.60
2019-06-26T09:07:30.717Z,33.60
2019-06-26T09:10:02.048Z,33.60
2019-06-26T09:12:33.190Z,33.70
2019-06-26T09:15:03.847Z,33.90
2019-06-26T09:17:35.352Z,34.00
2019-06-26T09:20:06.946Z,34.10
2019-06-26T09:22:37.628Z,34.20
2019-06-26T09:25:20.979Z,34.50
2019-06-26T09:27:41.417Z,34.70
2019-06-26T09:30:12.260Z,34.80
2019-06-26T09:32:42.326Z,34.90
2019-06-26T09:35:14.550Z,35.10
2019-06-26T09:37:44.954Z,35.20
2019-06-26T09:40:16.440Z,35.20
2019-06-26T09:42:46.967Z,35.40
2019-06-26T09:45:17.510Z,35.50
2019-06-26T09:47:48.455Z,35.60
2019-06-26T09:50:19.423Z,35.80
2019-06-26T09:52:49.887Z,36.00
2019-06-26T09:55:21.286Z,36.10
2019-06-26T09:57:52.430Z,36.20
2019-06-26T10:00:24.603Z,36.20
2019-06-26T10:02:55.703Z,36.40
2019-06-26T10:05:26.695Z,36.40
2019-06-26T10:07:57.422Z,36.40
2019-06-26T10:10:28.390Z,36.50
2019-06-26T10:12:59.266Z,36.50
2019-06-26T10:15:29.600Z,36.50
2019-06-26T10:18:00.599Z,36.60
2019-06-26T10:20:31.134Z,37.00
2019-06-26T10:23:01.450Z,37.30
2019-06-26T10:25:32.188Z,37.60
2019-06-26T10:28:02.764Z,38.00
2019-06-26T10:30:33.411Z,38.40
2019-06-26T10:33:04.151Z,38.90
2019-06-26T10:35:34.948Z,39.60
2019-06-26T10:38:05.491Z,40.20
2019-06-26T10:40:36.018Z,40.80
2019-06-26T10:43:06.980Z,41.20
2019-06-26T10:45:37.413Z,41.60
2019-06-26T10:48:08.842Z,42.10
2019-06-26T10:50:49.947Z,42.20
2019-06-26T10:53:12.781Z,42.60
2019-06-26T10:55:42.586Z,43.20
2019-06-26T10:58:13.440Z,43.90
2019-06-26T11:00:44.586Z,44.40
2019-06-26T11:03:19.634Z,44.70
2019-06-26T11:05:50.574Z,44.90
2019-06-26T11:08:21.718Z,45.20
2019-06-26T11:10:54.927Z,45.30
2019-06-26T11:13:25.667Z,45.20
2019-06-26T11:15:55.921Z,45.30
2019-06-26T11:18:27.130Z,45.50
2019-06-26T11:20:57.878Z,45.70
2019-06-26T11:23:29.032Z,45.90
2019-06-26T11:25:59.619Z,46.50
2019-06-26T11:28:30.246Z,46.70
2019-06-26T11:31:00.818Z,46.70
2019-06-26T11:33:31.358Z,46.80
2019-06-26T11:36:01.938Z,47.00
2019-06-26T11:38:32.590Z,46.80
2019-06-26T11:41:03.518Z,46.80
2019-06-26T11:43:34.158Z,46.30
2019-06-26T11:46:05.832Z,46.10
2019-06-26T11:48:36.335Z,46.10
2019-06-26T11:51:06.873Z,46.30
2019-06-26T11:53:37.270Z,46.20
2019-06-26T11:56:08.464Z,46.40
2019-06-26T11:58:39.165Z,46.30
2019-06-26T12:01:10.316Z,45.80
2019-06-26T12:03:41.674Z,46.00
2019-06-26T12:06:19.035Z,46.60
2019-06-26T12:08:44.796Z,46.70
2019-06-26T12:11:15.728Z,46.60
2019-06-26T12:13:47.079Z,46.50
2019-06-26T12:16:17.798Z,46.30
2019-06-26T12:18:48.379Z,46.40
2019-06-26T12:21:18.637Z,46.50
2019-06-26T12:23:49.426Z,46.70
2019-06-26T12:26:20.980Z,47.20
2019-06-26T12:28:51.521Z,47.80
2019-06-26T12:31:21.840Z,48.20
2019-06-26T12:33:52.325Z,48.70
2019-06-26T12:36:24.568Z,48.70
2019-06-26T12:38:55.260Z,48.50
2019-06-26T12:41:26.450Z,48.70
2019-06-26T12:43:57.390Z,48.90
2019-06-26T12:46:27.931Z,49.00
2019-06-26T12:48:58.095Z,49.20
2019-06-26T12:51:28.506Z,49.40
2019-06-26T12:53:58.710Z,49.40
2019-06-26T12:56:29.006Z,49.20
2019-06-26T12:59:00.160Z,49.20
2019-06-26T13:01:30.936Z,49.10
2019-06-26T13:04:01.910Z,49.30
2019-06-26T13:06:32.808Z,49.00
2019-06-26T13:09:04.985Z,48.90
2019-06-26T13:11:35.520Z,48.90
2019-06-26T13:14:06.908Z,48.40
2019-06-26T13:16:37.609Z,48.40
2019-06-26T13:19:08.966Z,48.60
2019-06-26T13:21:39.719Z,48.40
2019-06-26T13:24:10.871Z,47.90
2019-06-26T13:26:41.827Z,47.20
2019-06-26T13:29:12.697Z,46.60
2019-06-26T13:31:43.683Z,46.60
2019-06-26T13:34:14.439Z,46.50
2019-06-26T13:36:45.392Z,46.40
2019-06-26T13:39:16.319Z,46.60
2019-06-26T13:41:47.456Z,46.50
2019-06-26T13:44:18.405Z,46.30
2019-06-26T13:46:48.534Z,46.30
2019-06-26T13:49:19.062Z,46.30
2019-06-26T13:51:49.801Z,46.80
2019-06-26T13:54:20.948Z,47.20
2019-06-26T13:56:51.816Z,47.50
2019-06-26T13:59:22.860Z,47.60
2019-06-26T14:01:53.302Z,47.50
2019-06-26T14:04:24.116Z,47.20
2019-06-26T14:06:54.850Z,46.60
2019-06-26T14:09:25.809Z,46.10
2019-06-26T14:11:56.750Z,45.70
2019-06-26T14:17:00.250Z,45.10
2019-06-26T14:19:30.752Z,45.00
2019-06-26T14:22:01.268Z,44.90
2019-06-26T14:24:32.482Z,44.90
2019-06-26T14:27:02.914Z,44.60
2019-06-26T14:29:33.993Z,44.10
2019-06-26T14:32:06.922Z,43.40
2019-06-26T14:34:38.298Z,42.70
2019-06-26T14:37:09.436Z,42.30
2019-06-26T14:39:41.130Z,41.90
2019-06-26T14:42:11.447Z,41.90
2019-06-26T14:44:42.088Z,41.80
2019-06-26T14:47:13.234Z,41.60
2019-06-26T14:49:43.728Z,41.40
2019-06-26T14:52:14.669Z,41.30
2019-06-26T14:54:45.684Z,41.20
2019-06-26T14:57:16.016Z,41.20
2019-06-26T14:59:48.680Z,41.10
2019-06-26T15:02:20.149Z,41.20
2019-06-26T15:04:50.655Z,41.20
2019-06-26T15:07:21.258Z,41.10
2019-06-26T15:09:51.960Z,41.00
2019-06-26T15:12:23.090Z,40.80
2019-06-26T15:14:53.592Z,40.60
2019-06-26T15:17:24.290Z,40.60
2019-06-26T15:19:54.911Z,40.60
2019-06-26T15:22:25.432Z,40.70
2019-06-26T15:24:55.574Z,40.70
2019-06-26T15:27:26.430Z,40.80
2019-06-26T15:29:56.585Z,40.70
2019-06-26T15:32:26.734Z,40.70
2019-06-26T15:34:57.500Z,40.70
2019-06-26T15:37:28.530Z,40.60
2019-06-26T15:39:59.990Z,40.50
2019-06-26T15:42:30.462Z,40.30
2019-06-26T15:45:01.011Z,40.30
2019-06-26T15:47:31.374Z,40.40
2019-06-26T15:50:02.330Z,40.40
2019-06-26T15:52:32.861Z,40.40
2019-06-26T15:55:04.410Z,40.30
2019-06-26T15:57:35.156Z,40.30
2019-06-26T16:00:06.935Z,40.30
2019-06-26T16:02:37.480Z,40.30
2019-06-26T16:05:08.403Z,40.20
2019-06-26T16:07:39.487Z,40.20
2019-06-26T16:10:12.142Z,40.20
2019-06-26T16:12:42.870Z,40.20
2019-06-26T16:15:13.890Z,40.00
2019-06-26T16:18:09.507Z,40.00
2019-06-26T16:20:40.893Z,39.90
2019-06-26T16:23:14.287Z,39.80
2019-06-26T16:25:44.946Z,39.70
2019-06-26T16:28:15.784Z,39.60
2019-06-26T16:30:46.519Z,39.60
2019-06-26T16:33:17.475Z,39.60
2019-06-26T16:35:48.352Z,39.70
2019-06-26T16:38:19.157Z,39.80
2019-06-26T16:40:49.264Z,39.80
2019-06-26T16:43:20.080Z,39.80
2019-06-26T16:45:53.385Z,39.80
2019-06-26T16:48:25.252Z,39.80
2019-06-26T16:50:55.519Z,39.80
2019-06-26T16:53:26.657Z,39.80
2019-06-26T16:55:56.995Z,39.60
2019-06-26T16:58:27.038Z,39.60
2019-06-26T17:00:57.593Z,39.50
2019-06-26T17:03:28.136Z,39.40
2019-06-26T17:05:58.394Z,39.30
2019-06-26T17:08:29.377Z,39.20
2019-06-26T17:10:59.679Z,39.20
2019-06-26T17:13:31.122Z,39.20
2019-06-26T17:16:01.887Z,39.10
2019-06-26T17:18:33.423Z,39.10
2019-06-26T17:21:04.367Z,39.00
2019-06-26T17:23:35.293Z,39.00
2019-06-26T17:26:06.225Z,38.90
2019-06-26T17:28:37.049Z,38.90
2019-06-26T17:31:07.767Z,38.80
2019-06-26T17:33:38.417Z,38.70
2019-06-26T17:36:09.417Z,38.60
2019-06-26T17:38:40.577Z,38.40
2019-06-26T17:41:11.450Z,38.30
2019-06-26T17:43:41.851Z,38.10
2019-06-26T17:46:12.389Z,38.00
2019-06-26T17:48:43.261Z,37.90
2019-06-26T17:51:13.615Z,37.80
2019-06-26T17:53:44.600Z,37.70
2019-06-26T17:56:15.331Z,37.70
2019-06-26T17:58:46.074Z,37.60
2019-06-26T18:01:16.817Z,37.60
2019-06-26T18:03:47.753Z,37.60
2019-06-26T18:06:19.103Z,37.40
2019-06-26T18:08:49.842Z,37.30
2019-06-26T18:11:21.204Z,37.30
2019-06-26T18:13:51.327Z,37.10
2019-06-26T18:16:21.811Z,36.90
2019-06-26T18:18:52.395Z,36.80
2019-06-26T18:21:23.135Z,36.60
2019-06-26T18:23:53.873Z,36.40
2019-06-26T18:26:25.013Z,36.30
2019-06-26T18:28:55.765Z,36.20
2019-06-26T18:31:26.721Z,36.00
2019-06-26T18:33:57.591Z,35.90
2019-06-26T18:36:28.391Z,35.80
2019-06-26T18:38:59.135Z,35.80
2019-06-26T18:41:30.087Z,35.70
2019-06-26T18:44:00.814Z,35.60
2019-06-26T18:46:31.354Z,35.60
2019-06-26T18:49:01.479Z,35.50
2019-06-26T18:51:31.949Z,35.40
2019-06-26T18:54:02.750Z,35.20
2019-06-26T18:56:33.895Z,35.10
2019-06-26T18:59:05.223Z,35.00
2019-06-26T19:01:36.211Z,34.90
2019-06-26T19:04:07.069Z,34.80
2019-06-26T19:06:38.287Z,34.70
2019-06-26T19:09:09.035Z,34.60
2019-06-26T19:11:39.576Z,34.50
2019-06-26T19:14:09.883Z,34.30
2019-06-26T19:16:41.243Z,34.20
2019-06-26T19:19:12.553Z,34.10
2019-06-26T19:21:43.704Z,34.00
2019-06-26T19:24:14.463Z,33.80
2019-06-26T19:26:44.851Z,33.70
2019-06-26T19:29:15.563Z,33.60
2019-06-26T19:31:45.399Z,33.50
2019-06-26T19:34:15.605Z,33.30
2019-06-26T19:36:50.072Z,33.20
2019-06-26T19:39:20.824Z,33.10
2019-06-26T19:41:50.649Z,33.00
2019-06-26T19:44:21.619Z,32.90
2019-06-26T19:46:52.524Z,32.80
2019-06-26T19:49:23.331Z,32.80
2019-06-26T19:51:55.277Z,32.70
2019-06-26T19:54:31.057Z,32.60
2019-06-26T19:56:59.177Z,32.50
2019-06-26T19:59:30.163Z,32.40
2019-06-26T20:02:01.317Z,32.30
2019-06-26T20:04:32.193Z,32.30
2019-06-26T20:07:03.610Z,32.20
2019-06-26T20:09:34.763Z,32.10
2019-06-26T20:12:08.159Z,32.10
2019-06-26T20:14:38.693Z,32.00
2019-06-26T20:17:09.639Z,31.90
2019-06-26T20:19:40.818Z,31.90
2019-06-26T20:22:11.515Z,31.80
2019-06-26T20:24:44.613Z,31.80
2019-06-26T20:27:13.643Z,31.80
2019-06-26T20:29:44.134Z,31.70
2019-06-26T20:32:15.095Z,31.70
2019-06-26T20:34:45.561Z,31.60
2019-06-26T20:37:15.709Z,31.50
2019-06-26T20:39:46.425Z,31.50
2019-06-26T20:42:18.053Z,31.40
2019-06-26T20:44:48.671Z,31.40
2019-06-26T20:47:19.731Z,31.30
2019-06-26T20:49:53.388Z,31.30
2019-06-26T20:52:22.797Z,31.20
2019-06-26T20:55:01.207Z,31.20
2019-06-26T20:57:25.388Z,31.10
2019-06-26T20:59:55.479Z,31.10
2019-06-26T21:02:26.616Z,31.00
2019-06-26T21:04:57.221Z,31.00
2019-06-26T21:07:29.322Z,31.00
2019-06-26T21:10:00.711Z,30.90
2019-06-26T21:12:30.976Z,30.90
2019-06-26T21:15:01.773Z,30.90
2019-06-26T21:17:32.920Z,30.80
2019-06-26T21:20:03.635Z,30.70
2019-06-26T21:22:34.588Z,30.70
2019-06-26T21:25:17.804Z,30.70
2019-06-26T21:27:39.753Z,30.60
2019-06-26T21:30:11.727Z,30.60
2019-06-26T21:32:42.677Z,30.50
2019-06-26T21:35:13.597Z,30.40
2019-06-26T21:37:44.555Z,30.40
2019-06-26T21:40:15.293Z,30.30
2019-06-26T21:42:45.820Z,30.20
2019-06-26T21:45:20.117Z,30.20
2019-06-26T21:47:50.787Z,30.20
2019-06-26T21:50:22.749Z,30.10
2019-06-26T21:52:53.823Z,30.10
2019-06-26T21:55:34.329Z,30.10
2019-06-26T21:58:17.705Z,30.10
2019-06-26T22:01:07.290Z,30.00
2019-06-26T22:03:56.465Z,30.00
2019-06-26T22:06:33.540Z,30.00
2019-06-26T22:09:12.069Z,30.00
2019-06-26T22:11:44.449Z,29.90
2019-06-26T22:14:15.393Z,29.80
2019-06-26T22:16:45.249Z,29.70
2019-06-26T22:19:15.647Z,29.60
2019-06-26T22:21:48.448Z,29.60
2019-06-26T22:24:19.575Z,29.50
2019-06-26T22:26:50.729Z,29.50
2019-06-26T22:29:21.679Z,29.40
2019-06-26T22:31:53.641Z,29.40
2019-06-26T22:34:24.582Z,29.40
2019-06-26T22:36:55.463Z,29.30
2019-06-26T22:39:25.655Z,29.30
2019-06-26T22:41:56.379Z,29.20
2019-06-26T22:44:27.127Z,29.20
2019-06-26T22:46:57.657Z,29.10
2019-06-26T22:49:29.483Z,29.10
2019-06-26T22:52:00.168Z,29.10
2019-06-26T22:54:31.321Z,29.00
2019-06-26T22:57:02.189Z,28.90
2019-06-26T22:59:32.784Z,28.90
2019-06-26T23:02:02.923Z,28.90
2019-06-26T23:04:34.282Z,28.80
2019-06-26T23:07:04.801Z,28.80
2019-06-26T23:09:35.026Z,28.70
2019-06-26T23:12:06.283Z,28.60
2019-06-26T23:14:37.270Z,28.50
2019-06-26T23:17:07.905Z,28.40
2019-06-26T23:19:39.576Z,28.40
2019-06-26T23:22:11.697Z,28.30
2019-06-26T23:24:43.255Z,28.20
2019-06-26T23:27:13.789Z,28.20
2019-06-26T23:29:43.982Z,28.20
2019-06-26T23:32:14.863Z,28.10
2019-06-26T23:34:45.347Z,28.10
2019-06-26T23:37:16.335Z,28.10
2019-06-26T23:39:46.993Z,28.00
2019-06-26T23:42:18.213Z,28.00
2019-06-26T23:44:48.503Z,27.90
2019-06-26T23:47:19.026Z,27.90
2019-06-26T23:49:49.790Z,27.80
2019-06-26T23:52:20.299Z,27.80
2019-06-26T23:54:50.898Z,27.80
2019-06-26T23:57:22.048Z,27.70
2019-06-26T23:59:52.905Z,27.70
